Lynchburg Regional Preston Glenn Field
KLYH : rendu visible

Aérodrome :











RETROUVEZ-NOUS SUR...

 
LOGIN :

S'inscrire | Disclaimer

   EN    FR    IT 

 









Légende :    VFR   VFR Marginal   IFR   IFR Intensif   IFR Très Intensif
Visi : 
Plafond : 
>= 8 km
>= 3000ft
5 à 8 km
1000 à 3000 ft
1500m à 5 km
500 à 1000 ft
800 à 1500m
200 à 500 ft
< 800m
< 200 ft
Symboles :   Orages  Brouillard  Fortes neiges  Fortes précipitations  Vent > 20 kt






- Altitude de l'aérodrome : 938 ft
- Code IATA : LYH


KLYH - Lynchburg Regional Preston Glenn Field

DERNIER METAR :
  • 260854Z AUTO 28004KT 10SM CLR 02/M03 A2994 RMK AO2 SLP140 T00221028 50001

METARs EXPIRÉS :
  • 260754Z AUTO 22003KT 10SM CLR 01/M03 A2994 RMK AO2 SLP142 T00111033
  • 260654Z AUTO 00000KT 10SM CLR 01/M03 A2994 RMK AO2 SLP141 T00111028

TAF KLYH
Valide du 26 à 06h jusqu'au 27 à 06h UTC


260536Z 2606/2706 27003KT P6SM SKC
FM261500 26008KT P6SM SKC
FM262200 27003KT P6SM SKC



MET'MAP, la Météo Aéronautique d'un coup d'oeil ! - Copyright ORBIFLY Décembre 2007 - Disclaimer

ORBIFLY MET'MAP TEAM :

Programmation & Développement : Alexandra Zaïnal
Sur une idée originale de : Baudouin d'Aumeries
Assistance à la programmation : Marc-Olivier Méhu
Soutien technique & logistique : Manuel Goepfert

Contact : metmap@orbifly.com




SOURCES & CREDITS :

   NOAA       Earth
Advisory